SQP142 UKLL-UKBB
Flight info
| Callsign | SQP142 |
|---|---|
| Flight time | 0h 57m |
| Altitude | 37000 |
| Route | ADBAN N983 SORON M986 SLV |
| Aircraft | B738/M-SDE2E3FGHIRWXY/LB1 |
Departure
| Time | 2026-04-24 09:19 |
|---|---|
| Airport | Lviv International Airport (UKLL) |
Arrival
| Time | 2026-04-24 10:16 |
|---|---|
| Airport | Boryspil International Airport (UKBB) |
| Time | Latitude | Longitude | Altitude | Speed | Heading |
|---|---|---|---|---|---|
| 2026-04-24 08:51 | 49.81345 | 23.95789 | 1067 ft | 0 kts | 45° |
| 2026-04-24 09:10 | 49.81342 | 23.95784 | 1065 ft | 4 kts | 46° |
| 2026-04-24 09:10 | 49.81323 | 23.95755 | 1066 ft | 4 kts | 44° |
| 2026-04-24 09:10 | 49.81307 | 23.95731 | 1066 ft | 4 kts | 48° |
| 2026-04-24 09:11 | 49.81292 | 23.95697 | 1069 ft | 4 kts | 66° |
| 2026-04-24 09:11 | 49.81285 | 23.95658 | 1067 ft | 4 kts | 89° |
| 2026-04-24 09:11 | 49.81285 | 23.95649 | 1066 ft | 1 kts | 92° |
| 2026-04-24 09:13 | 49.81285 | 23.95653 | 1067 ft | 2 kts | 92° |
| 2026-04-24 09:13 | 49.81282 | 23.95706 | 1066 ft | 8 kts | 105° |
| 2026-04-24 09:14 | 49.81238 | 23.95785 | 1065 ft | 10 kts | 135° |
| 2026-04-24 09:14 | 49.81189 | 23.95859 | 1065 ft | 10 kts | 135° |
| 2026-04-24 09:14 | 49.81141 | 23.95931 | 1065 ft | 9 kts | 136° |
| 2026-04-24 09:14 | 49.81098 | 23.95995 | 1065 ft | 8 kts | 136° |
| 2026-04-24 09:15 | 49.81052 | 23.96032 | 1065 ft | 8 kts | 171° |
| 2026-04-24 09:15 | 49.81027 | 23.96034 | 1065 ft | 0 kts | 180° |
| 2026-04-24 09:15 | 49.81019 | 23.96034 | 1065 ft | 3 kts | 180° |
| 2026-04-24 09:15 | 49.80971 | 23.96033 | 1065 ft | 11 kts | 180° |
| 2026-04-24 09:16 | 49.80882 | 23.96032 | 1063 ft | 14 kts | 180° |
| 2026-04-24 09:16 | 49.80787 | 23.96118 | 1064 ft | 16 kts | 135° |
| 2026-04-24 09:16 | 49.80708 | 23.96238 | 1065 ft | 17 kts | 137° |
| 2026-04-24 09:16 | 49.80629 | 23.96355 | 1065 ft | 14 kts | 136° |
| 2026-04-24 09:17 | 49.80591 | 23.96482 | 1065 ft | 13 kts | 91° |
| 2026-04-24 09:17 | 49.80591 | 23.96620 | 1065 ft | 13 kts | 90° |
| 2026-04-24 09:17 | 49.80559 | 23.96740 | 1066 ft | 12 kts | 134° |
| 2026-04-24 09:17 | 49.80495 | 23.96751 | 1065 ft | 9 kts | 208° |
| 2026-04-24 09:18 | 49.80453 | 23.96688 | 1064 ft | 6 kts | 227° |
| 2026-04-24 09:18 | 49.80436 | 23.96651 | 1063 ft | 4 kts | 263° |
| 2026-04-24 09:18 | 49.80456 | 23.96615 | 1064 ft | 4 kts | 316° |
| 2026-04-24 09:18 | 49.80559 | 23.96460 | 1065 ft | 53 kts | 316° |
| 2026-04-24 09:19 | 49.80998 | 23.95801 | 1063 ft | 121 kts | 315° |
| 2026-04-24 09:19 | 49.81712 | 23.94720 | 1343 ft | 152 kts | 315° |
| 2026-04-24 09:19 | 49.82494 | 23.93575 | 2174 ft | 158 kts | 317° |
| 2026-04-24 09:19 | 49.83343 | 23.92367 | 2854 ft | 180 kts | 317° |
| 2026-04-24 09:20 | 49.84338 | 23.90932 | 3133 ft | 209 kts | 316° |
| 2026-04-24 09:20 | 49.85434 | 23.89342 | 3779 ft | 218 kts | 317° |
| 2026-04-24 09:20 | 49.86169 | 23.88274 | 4296 ft | 220 kts | 317° |
| 2026-04-24 09:20 | 49.87290 | 23.86639 | 5076 ft | 224 kts | 317° |
| 2026-04-24 09:21 | 49.88474 | 23.84912 | 5551 ft | 242 kts | 317° |
| 2026-04-24 09:21 | 49.89705 | 23.83109 | 6525 ft | 243 kts | 319° |
| 2026-04-24 09:21 | 49.91096 | 23.81716 | 7554 ft | 241 kts | 342° |
| 2026-04-24 09:21 | 49.92781 | 23.81434 | 8406 ft | 250 kts | 4° |
| 2026-04-24 09:22 | 49.94466 | 23.82290 | 9288 ft | 263 kts | 26° |
| 2026-04-24 09:22 | 49.95829 | 23.84276 | 10137 ft | 279 kts | 51° |
| 2026-04-24 09:22 | 49.96640 | 23.87155 | 10579 ft | 309 kts | 70° |
| 2026-04-24 09:22 | 49.97084 | 23.90580 | 10804 ft | 338 kts | 78° |
| 2026-04-24 09:23 | 49.97091 | 23.94348 | 11323 ft | 357 kts | 90° |
| 2026-04-24 09:23 | 49.96682 | 23.98207 | 12094 ft | 365 kts | 96° |
| 2026-04-24 09:23 | 49.96152 | 24.02100 | 12923 ft | 370 kts | 97° |
| 2026-04-24 09:23 | 49.95601 | 24.06024 | 13726 ft | 374 kts | 97° |
| 2026-04-24 09:24 | 49.95051 | 24.09997 | 14420 ft | 379 kts | 96° |
| 2026-04-24 09:24 | 49.94509 | 24.14022 | 15139 ft | 382 kts | 96° |
| 2026-04-24 09:24 | 49.93978 | 24.18025 | 15866 ft | 385 kts | 95° |
| 2026-04-24 09:24 | 49.93437 | 24.22116 | 16585 ft | 389 kts | 95° |
| 2026-04-24 09:25 | 49.92826 | 24.26290 | 17277 ft | 396 kts | 98° |
| 2026-04-24 09:25 | 49.92071 | 24.30436 | 17963 ft | 401 kts | 99° |
| 2026-04-24 09:25 | 49.91262 | 24.34548 | 18591 ft | 406 kts | 100° |
| 2026-04-24 09:25 | 49.90413 | 24.38801 | 19193 ft | 409 kts | 99° |
| 2026-04-24 09:26 | 49.89574 | 24.43030 | 19803 ft | 412 kts | 99° |
| 2026-04-24 09:26 | 49.88740 | 24.47288 | 20411 ft | 414 kts | 99° |
| 2026-04-24 09:26 | 49.87907 | 24.51581 | 21010 ft | 417 kts | 98° |
| 2026-04-24 09:26 | 49.87073 | 24.55906 | 21589 ft | 420 kts | 98° |
| 2026-04-24 09:27 | 49.86233 | 24.60263 | 22160 ft | 423 kts | 98° |
| 2026-04-24 09:27 | 49.85398 | 24.64590 | 22730 ft | 426 kts | 97° |
| 2026-04-24 09:27 | 49.84544 | 24.69002 | 23287 ft | 429 kts | 97° |
| 2026-04-24 09:27 | 49.83683 | 24.73442 | 23793 ft | 432 kts | 97° |
| 2026-04-24 09:28 | 49.82811 | 24.77922 | 24251 ft | 434 kts | 97° |
| 2026-04-24 09:28 | 49.81935 | 24.82415 | 24713 ft | 437 kts | 97° |
| 2026-04-24 09:28 | 49.81052 | 24.86928 | 25155 ft | 439 kts | 97° |
| 2026-04-24 09:28 | 49.80314 | 24.91492 | 25566 ft | 430 kts | 86° |
| 2026-04-24 09:29 | 49.80245 | 24.96046 | 26003 ft | 422 kts | 79° |
| 2026-04-24 09:29 | 49.80282 | 25.00593 | 26443 ft | 424 kts | 79° |
| 2026-04-24 09:29 | 49.80314 | 25.05166 | 26834 ft | 427 kts | 79° |
| 2026-04-24 09:29 | 49.80328 | 25.09783 | 27243 ft | 430 kts | 80° |
| 2026-04-24 09:30 | 49.80324 | 25.14430 | 27651 ft | 432 kts | 80° |
| 2026-04-24 09:30 | 49.80302 | 25.20613 | 28171 ft | 435 kts | 80° |
| 2026-04-24 09:30 | 49.80287 | 25.23724 | 28427 ft | 437 kts | 81° |
| 2026-04-24 09:30 | 49.80262 | 25.28440 | 28804 ft | 439 kts | 80° |
| 2026-04-24 09:31 | 49.80236 | 25.33183 | 29159 ft | 442 kts | 80° |
| 2026-04-24 09:31 | 49.80209 | 25.37959 | 29527 ft | 444 kts | 80° |
| 2026-04-24 09:31 | 49.80182 | 25.42747 | 29868 ft | 446 kts | 80° |
| 2026-04-24 09:31 | 49.80154 | 25.47553 | 30184 ft | 448 kts | 80° |
| 2026-04-24 09:32 | 49.80125 | 25.52373 | 30465 ft | 450 kts | 80° |
| 2026-04-24 09:32 | 49.80094 | 25.57232 | 30752 ft | 451 kts | 80° |
| 2026-04-24 09:32 | 49.80060 | 25.62083 | 31134 ft | 450 kts | 80° |
| 2026-04-24 09:32 | 49.80024 | 25.66911 | 31553 ft | 448 kts | 80° |
| 2026-04-24 09:33 | 49.79986 | 25.71728 | 31951 ft | 447 kts | 80° |
| 2026-04-24 09:33 | 49.79944 | 25.76543 | 32284 ft | 447 kts | 80° |
| 2026-04-24 09:33 | 49.79900 | 25.81356 | 32619 ft | 447 kts | 80° |
| 2026-04-24 09:33 | 49.79852 | 25.86174 | 32986 ft | 446 kts | 80° |
| 2026-04-24 09:34 | 49.79803 | 25.90909 | 33350 ft | 446 kts | 80° |
| 2026-04-24 09:34 | 49.79752 | 25.95704 | 33703 ft | 445 kts | 80° |
| 2026-04-24 09:34 | 49.79700 | 26.00492 | 34021 ft | 445 kts | 80° |
| 2026-04-24 09:34 | 49.79646 | 26.05286 | 34272 ft | 445 kts | 80° |
| 2026-04-24 09:35 | 49.79591 | 26.10082 | 34541 ft | 445 kts | 80° |
| 2026-04-24 09:35 | 49.79534 | 26.14869 | 34800 ft | 446 kts | 80° |
| 2026-04-24 09:35 | 49.79475 | 26.19676 | 35032 ft | 446 kts | 81° |
| 2026-04-24 09:35 | 49.79413 | 26.24483 | 35280 ft | 447 kts | 81° |
| 2026-04-24 09:36 | 49.79349 | 26.29287 | 35534 ft | 447 kts | 81° |
| 2026-04-24 09:36 | 49.79282 | 26.34100 | 35761 ft | 447 kts | 81° |
| 2026-04-24 09:36 | 49.79215 | 26.38927 | 35982 ft | 448 kts | 81° |
| 2026-04-24 09:36 | 49.79144 | 26.43760 | 36214 ft | 448 kts | 81° |
| 2026-04-24 09:37 | 49.79072 | 26.48589 | 36439 ft | 449 kts | 82° |
| 2026-04-24 09:37 | 49.78999 | 26.53358 | 36628 ft | 450 kts | 82° |
| 2026-04-24 09:37 | 49.78922 | 26.58211 | 36835 ft | 450 kts | 82° |
| 2026-04-24 09:37 | 49.78844 | 26.63062 | 36931 ft | 453 kts | 82° |
| 2026-04-24 09:38 | 49.78681 | 26.72855 | 36930 ft | 455 kts | 82° |
| 2026-04-24 09:38 | 49.78503 | 26.82605 | 36916 ft | 450 kts | 82° |
| 2026-04-24 09:39 | 49.78322 | 26.92249 | 36931 ft | 448 kts | 82° |
| 2026-04-24 09:39 | 49.78138 | 27.01846 | 36928 ft | 447 kts | 82° |
| 2026-04-24 09:40 | 49.77945 | 27.11435 | 36919 ft | 447 kts | 82° |
| 2026-04-24 09:40 | 49.77745 | 27.21058 | 36923 ft | 447 kts | 82° |
| 2026-04-24 09:41 | 49.77535 | 27.30690 | 36923 ft | 448 kts | 82° |
| 2026-04-24 09:41 | 49.77318 | 27.40290 | 36912 ft | 450 kts | 82° |
| 2026-04-24 09:42 | 49.77090 | 27.49979 | 36920 ft | 452 kts | 82° |
| 2026-04-24 09:42 | 49.76854 | 27.59707 | 36914 ft | 453 kts | 82° |
| 2026-04-24 09:43 | 49.76609 | 27.69487 | 36592 ft | 460 kts | 82° |
| 2026-04-24 09:43 | 49.76483 | 27.74440 | 36100 ft | 460 kts | 82° |
| 2026-04-24 09:43 | 49.76357 | 27.79370 | 35511 ft | 456 kts | 80° |
| 2026-04-24 09:44 | 49.76538 | 27.84182 | 34889 ft | 442 kts | 70° |
| 2026-04-24 09:44 | 49.77149 | 27.88771 | 34316 ft | 427 kts | 62° |
| 2026-04-24 09:44 | 49.78150 | 27.92980 | 33915 ft | 412 kts | 56° |
| 2026-04-24 09:44 | 49.79220 | 27.97064 | 33405 ft | 407 kts | 56° |
| 2026-04-24 09:45 | 49.80280 | 28.01099 | 32948 ft | 402 kts | 56° |
| 2026-04-24 09:45 | 49.81317 | 28.05077 | 32507 ft | 397 kts | 56° |
| 2026-04-24 09:45 | 49.82335 | 28.09014 | 32079 ft | 391 kts | 56° |
| 2026-04-24 09:45 | 49.83336 | 28.12913 | 31650 ft | 387 kts | 56° |
| 2026-04-24 09:46 | 49.84321 | 28.16767 | 31231 ft | 382 kts | 55° |
| 2026-04-24 09:46 | 49.85292 | 28.20579 | 30808 ft | 378 kts | 55° |
| 2026-04-24 09:46 | 49.86250 | 28.24350 | 30398 ft | 374 kts | 55° |
| 2026-04-24 09:46 | 49.87197 | 28.28081 | 29993 ft | 370 kts | 55° |
| 2026-04-24 09:47 | 49.88134 | 28.31784 | 29536 ft | 367 kts | 55° |
| 2026-04-24 09:47 | 49.89057 | 28.35440 | 29113 ft | 361 kts | 54° |
| 2026-04-24 09:47 | 49.89967 | 28.39052 | 28698 ft | 356 kts | 54° |
| 2026-04-24 09:47 | 49.90863 | 28.42612 | 28293 ft | 352 kts | 54° |
| 2026-04-24 09:48 | 49.91740 | 28.46094 | 27888 ft | 349 kts | 54° |
| 2026-04-24 09:48 | 49.92617 | 28.49583 | 27485 ft | 345 kts | 54° |
| 2026-04-24 09:48 | 49.93490 | 28.53056 | 27079 ft | 346 kts | 55° |
| 2026-04-24 09:48 | 49.94378 | 28.56570 | 26685 ft | 352 kts | 55° |
| 2026-04-24 09:49 | 49.95265 | 28.60105 | 26272 ft | 350 kts | 55° |
| 2026-04-24 09:49 | 49.96140 | 28.63624 | 25865 ft | 347 kts | 56° |
| 2026-04-24 09:49 | 49.97007 | 28.67118 | 25464 ft | 344 kts | 56° |
| 2026-04-24 09:49 | 49.97864 | 28.70570 | 25065 ft | 342 kts | 56° |
| 2026-04-24 09:50 | 49.98718 | 28.74011 | 24681 ft | 341 kts | 56° |
| 2026-04-24 09:50 | 49.99568 | 28.77436 | 24289 ft | 339 kts | 56° |
| 2026-04-24 09:50 | 50.00422 | 28.80874 | 23906 ft | 342 kts | 56° |
| 2026-04-24 09:50 | 50.01281 | 28.84336 | 23528 ft | 345 kts | 57° |
| 2026-04-24 09:51 | 50.02140 | 28.87818 | 23033 ft | 344 kts | 57° |
| 2026-04-24 09:51 | 50.02991 | 28.91279 | 22606 ft | 341 kts | 57° |
| 2026-04-24 09:51 | 50.03833 | 28.94714 | 22215 ft | 337 kts | 57° |
| 2026-04-24 09:51 | 50.04663 | 28.98109 | 21844 ft | 334 kts | 57° |
| 2026-04-24 09:52 | 50.05467 | 29.01439 | 21473 ft | 333 kts | 57° |
| 2026-04-24 09:52 | 50.06291 | 29.04858 | 21072 ft | 332 kts | 57° |
| 2026-04-24 09:52 | 50.07093 | 29.08190 | 20697 ft | 333 kts | 57° |
| 2026-04-24 09:52 | 50.07909 | 29.11582 | 20325 ft | 336 kts | 58° |
| 2026-04-24 09:53 | 50.08726 | 29.14983 | 19941 ft | 335 kts | 58° |
| 2026-04-24 09:53 | 50.09536 | 29.18374 | 19552 ft | 333 kts | 58° |
| 2026-04-24 09:53 | 50.10340 | 29.21742 | 19173 ft | 331 kts | 58° |
| 2026-04-24 09:53 | 50.11139 | 29.25095 | 18796 ft | 329 kts | 58° |
| 2026-04-24 09:54 | 50.11934 | 29.28430 | 18423 ft | 327 kts | 58° |
| 2026-04-24 09:54 | 50.12724 | 29.31749 | 18034 ft | 326 kts | 58° |
| 2026-04-24 09:54 | 50.13509 | 29.35048 | 17614 ft | 324 kts | 58° |
| 2026-04-24 09:54 | 50.14290 | 29.38335 | 17223 ft | 322 kts | 59° |
| 2026-04-24 09:55 | 50.15064 | 29.41601 | 16845 ft | 320 kts | 59° |
| 2026-04-24 09:55 | 50.15835 | 29.44857 | 16481 ft | 319 kts | 59° |
| 2026-04-24 09:55 | 50.16606 | 29.48108 | 16122 ft | 321 kts | 59° |
| 2026-04-24 09:55 | 50.17380 | 29.51383 | 15749 ft | 322 kts | 60° |
| 2026-04-24 09:56 | 50.18131 | 29.54614 | 15385 ft | 322 kts | 63° |
| 2026-04-24 09:56 | 50.18595 | 29.58084 | 15012 ft | 332 kts | 75° |
| 2026-04-24 09:56 | 50.18600 | 29.61731 | 14660 ft | 338 kts | 84° |
| 2026-04-24 09:56 | 50.18451 | 29.65386 | 14306 ft | 337 kts | 85° |
| 2026-04-24 09:57 | 50.18274 | 29.69038 | 13941 ft | 336 kts | 86° |
| 2026-04-24 09:57 | 50.18096 | 29.72671 | 13571 ft | 335 kts | 86° |
| 2026-04-24 09:57 | 50.17923 | 29.76290 | 13170 ft | 333 kts | 86° |
| 2026-04-24 09:57 | 50.17756 | 29.79882 | 12794 ft | 331 kts | 86° |
| 2026-04-24 09:58 | 50.17595 | 29.83449 | 12447 ft | 329 kts | 86° |
| 2026-04-24 09:58 | 50.17437 | 29.86992 | 12087 ft | 327 kts | 86° |
| 2026-04-24 09:58 | 50.17281 | 29.90512 | 11740 ft | 324 kts | 87° |
| 2026-04-24 09:58 | 50.17127 | 29.94008 | 11396 ft | 322 kts | 87° |
| 2026-04-24 09:59 | 50.16974 | 29.97483 | 11048 ft | 320 kts | 87° |
| 2026-04-24 09:59 | 50.16821 | 30.00936 | 10709 ft | 318 kts | 87° |
| 2026-04-24 09:59 | 50.16670 | 30.04331 | 10375 ft | 317 kts | 88° |
| 2026-04-24 09:59 | 50.16516 | 30.07733 | 10182 ft | 310 kts | 88° |
| 2026-04-24 10:00 | 50.16364 | 30.11042 | 10041 ft | 302 kts | 88° |
| 2026-04-24 10:00 | 50.16216 | 30.14263 | 9918 ft | 294 kts | 88° |
| 2026-04-24 10:00 | 50.16071 | 30.17396 | 9764 ft | 287 kts | 88° |
| 2026-04-24 10:00 | 50.15930 | 30.20500 | 9457 ft | 286 kts | 88° |
| 2026-04-24 10:01 | 50.15789 | 30.23592 | 9183 ft | 285 kts | 89° |
| 2026-04-24 10:01 | 50.15647 | 30.26659 | 8901 ft | 282 kts | 89° |
| 2026-04-24 10:01 | 50.15505 | 30.29698 | 8637 ft | 280 kts | 89° |
| 2026-04-24 10:01 | 50.15364 | 30.32725 | 8352 ft | 280 kts | 90° |
| 2026-04-24 10:02 | 50.15222 | 30.35743 | 8081 ft | 278 kts | 90° |
| 2026-04-24 10:02 | 50.15079 | 30.38750 | 7807 ft | 278 kts | 90° |
| 2026-04-24 10:02 | 50.14935 | 30.41751 | 7540 ft | 277 kts | 90° |
| 2026-04-24 10:02 | 50.14791 | 30.44742 | 7274 ft | 276 kts | 91° |
| 2026-04-24 10:03 | 50.14648 | 30.47713 | 7056 ft | 273 kts | 91° |
| 2026-04-24 10:03 | 50.14507 | 30.50634 | 6879 ft | 269 kts | 91° |
| 2026-04-24 10:03 | 50.14364 | 30.53558 | 6632 ft | 272 kts | 91° |
| 2026-04-24 10:03 | 50.14218 | 30.56515 | 6372 ft | 274 kts | 92° |
| 2026-04-24 10:04 | 50.14072 | 30.59477 | 6086 ft | 274 kts | 92° |
| 2026-04-24 10:04 | 50.13927 | 30.62403 | 5812 ft | 274 kts | 92° |
| 2026-04-24 10:04 | 50.13780 | 30.65362 | 5545 ft | 274 kts | 92° |
| 2026-04-24 10:04 | 50.13633 | 30.68285 | 5440 ft | 268 kts | 91° |
| 2026-04-24 10:05 | 50.13489 | 30.71155 | 5306 ft | 263 kts | 92° |
| 2026-04-24 10:05 | 50.13345 | 30.73968 | 5193 ft | 257 kts | 91° |
| 2026-04-24 10:05 | 50.13254 | 30.76737 | 4952 ft | 256 kts | 88° |
| 2026-04-24 10:05 | 50.13234 | 30.79510 | 4718 ft | 254 kts | 87° |
| 2026-04-24 10:06 | 50.13219 | 30.82260 | 4462 ft | 253 kts | 87° |
| 2026-04-24 10:06 | 50.13298 | 30.87686 | 3928 ft | 246 kts | 68° |
| 2026-04-24 10:06 | 50.14247 | 30.89739 | 3709 ft | 229 kts | 26° |
| 2026-04-24 10:07 | 50.15718 | 30.90236 | 3542 ft | 213 kts | 350° |
| 2026-04-24 10:07 | 50.16680 | 30.90016 | 3409 ft | 209 kts | 350° |
| 2026-04-24 10:07 | 50.18114 | 30.89831 | 3149 ft | 205 kts | 354° |
| 2026-04-24 10:07 | 50.19512 | 30.89783 | 3024 ft | 196 kts | 356° |
| 2026-04-24 10:08 | 50.20863 | 30.89770 | 2980 ft | 189 kts | 356° |
| 2026-04-24 10:08 | 50.22522 | 30.89736 | 2996 ft | 175 kts | 355° |
| 2026-04-24 10:08 | 50.23345 | 30.89738 | 2995 ft | 175 kts | 359° |
| 2026-04-24 10:08 | 50.24479 | 30.90431 | 2978 ft | 182 kts | 38° |
| 2026-04-24 10:09 | 50.25072 | 30.92203 | 2987 ft | 193 kts | 79° |
| 2026-04-24 10:09 | 50.24811 | 30.94276 | 2997 ft | 202 kts | 120° |
| 2026-04-24 10:09 | 50.23780 | 30.95717 | 2975 ft | 201 kts | 161° |
| 2026-04-24 10:09 | 50.22428 | 30.96035 | 3003 ft | 196 kts | 183° |
| 2026-04-24 10:10 | 50.21054 | 30.96043 | 3003 ft | 198 kts | 184° |
| 2026-04-24 10:10 | 50.19661 | 30.96025 | 2997 ft | 201 kts | 184° |
| 2026-04-24 10:10 | 50.18273 | 30.96002 | 2989 ft | 203 kts | 184° |
| 2026-04-24 10:10 | 50.16857 | 30.95980 | 2986 ft | 204 kts | 184° |
| 2026-04-24 10:11 | 50.15462 | 30.95788 | 2966 ft | 197 kts | 205° |
| 2026-04-24 10:11 | 50.14441 | 30.94575 | 2981 ft | 180 kts | 245° |
| 2026-04-24 10:11 | 50.14213 | 30.92779 | 2990 ft | 167 kts | 286° |
| 2026-04-24 10:11 | 50.14746 | 30.91190 | 2999 ft | 168 kts | 307° |
| 2026-04-24 10:12 | 50.15622 | 30.89990 | 2978 ft | 173 kts | 341° |
| 2026-04-24 10:12 | 50.16806 | 30.89802 | 2982 ft | 171 kts | 353° |
| 2026-04-24 10:12 | 50.17978 | 30.89661 | 2980 ft | 167 kts | 352° |
| 2026-04-24 10:12 | 50.19142 | 30.89535 | 2987 ft | 169 kts | 354° |
| 2026-04-24 10:13 | 50.20343 | 30.89521 | 2930 ft | 176 kts | 357° |
| 2026-04-24 10:13 | 50.21581 | 30.89584 | 2716 ft | 179 kts | 358° |
| 2026-04-24 10:13 | 50.22808 | 30.89670 | 2465 ft | 178 kts | 359° |
| 2026-04-24 10:13 | 50.24024 | 30.89761 | 2225 ft | 167 kts | 359° |
| 2026-04-24 10:14 | 50.25123 | 30.89847 | 2008 ft | 149 kts | 359° |
| 2026-04-24 10:14 | 50.26091 | 30.89918 | 1846 ft | 132 kts | 358° |
| 2026-04-24 10:14 | 50.26993 | 30.89982 | 1633 ft | 131 kts | 358° |
| 2026-04-24 10:14 | 50.27879 | 30.90047 | 1445 ft | 128 kts | 358° |
| 2026-04-24 10:15 | 50.28772 | 30.90112 | 1261 ft | 131 kts | 358° |
| 2026-04-24 10:15 | 50.29673 | 30.90178 | 1058 ft | 131 kts | 358° |
| 2026-04-24 10:15 | 50.30577 | 30.90246 | 834 ft | 127 kts | 359° |
| 2026-04-24 10:15 | 50.31442 | 30.90309 | 668 ft | 124 kts | 1° |
| 2026-04-24 10:16 | 50.32325 | 30.90372 | 507 ft | 128 kts | 1° |
| 2026-04-24 10:16 | 50.33204 | 30.90441 | 418 ft | 112 kts | 1° |
| 2026-04-24 10:16 | 50.33828 | 30.90483 | 422 ft | 70 kts | 2° |
| 2026-04-24 10:16 | 50.34135 | 30.90505 | 415 ft | 27 kts | 1° |
| 2026-04-24 10:17 | 50.34317 | 30.90462 | 418 ft | 26 kts | 341° |
| 2026-04-24 10:17 | 50.34465 | 30.90350 | 412 ft | 22 kts | 333° |
| 2026-04-24 10:17 | 50.34595 | 30.90247 | 415 ft | 17 kts | 333° |
| 2026-04-24 10:17 | 50.34710 | 30.90224 | 412 ft | 17 kts | 3° |
| 2026-04-24 10:18 | 50.34815 | 30.90232 | 410 ft | 11 kts | 3° |
| 2026-04-24 10:18 | 50.34880 | 30.90191 | 412 ft | 11 kts | 307° |
| 2026-04-24 10:18 | 50.34893 | 30.90081 | 410 ft | 10 kts | 274° |
| 2026-04-24 10:18 | 50.34935 | 30.90002 | 412 ft | 10 kts | 346° |
| 2026-04-24 10:19 | 50.35004 | 30.90003 | 414 ft | 10 kts | 2° |
| 2026-04-24 10:19 | 50.35069 | 30.90008 | 414 ft | 7 kts | 3° |
| 2026-04-24 10:19 | 50.35106 | 30.90009 | 411 ft | 5 kts | 347° |
| 2026-04-24 10:19 | 50.35114 | 30.89959 | 414 ft | 5 kts | 271° |
| 2026-04-24 10:20 | 50.35115 | 30.89912 | 415 ft | 2 kts | 272° |
| 2026-04-24 10:20 | 50.35115 | 30.89892 | 412 ft | 1 kts | 271° |
| 2026-04-24 10:20 | 50.35115 | 30.89889 | 412 ft | 0 kts | 270° |